Portada
METAR-TAF:

METAR-TAF

Aeropuertos :

Tete, Mozambique

latitud: 16-06S, longitud: 033-38E, altitud: 160 m

Observación

El informe se hizo hace 41 minutos, a las 05:00 UTC
Viento 9 kt del sureste
Temperatura 24°C
Humedad 74%
Presión 1020 hPa
Visibilidad 10 km o más
Cielo nuboso a una altura de 2000 ft

METAR: FQTT 280500Z 13009KT 9999 BKN020 24/19 Q1020

Hora: 07:41 (05:41 UTC)

Pronóstico

El informe se hizo hace 1 hora y 41 minutos, a las 04:00 UTC
Pronóstico válido del 28 a las 06 UTC al 29 a las 06 UTC
Viento 10 kt del sur-sureste
Visibilidad 10 km o más
sin nubes por debajo de 1500 m y sin presencia de cumulonimbus.
Evolucionando progresivamente
del 28 a las 12 UTC al 28 a las 14 UTC
Viento 8 kt del este
Evolucionando progresivamente
del 28 a las 18 UTC al 28 a las 20 UTC
Viento 10 kt del suroeste

TAF: FQTT 280400Z 2806/2906 16010KT CAVOK TX32/2813Z TN20/2903Z BECMG 2812/2814 10008KT BECMG 2818/2820 23010KT

Observaciones y pronósticos meteorológicos de más de 4000 aeropuertos (mensajes METAR y TAF).

Los puntos amarillos y rojos representan las estaciones disponibles.

Ponga el ratón en el punto deseado para ver el nombre de la estación.

Haga clic para ver las observaciones y los pronósticos meteorológicos.

Para cambiar el mapa : haga clic en los botones verdes con una cruz de color negro para hacer un zoom, en el botón verde con un guión para alejar o en las flechas verdes para mapas adyacentes.


METAR-TAF: